Terminal Aerodrome Forecast
Issued by NWS

Home | Current Version | Previous Version | Text Only | Print | Product List | Glossary On
Versions: 1 2 3 4 5 6 7 8 9 10 11 12 13 14 15 16 17 18 19 20 21 22
000
FTUS43 KJKL 271600 AAA
TAFSME
TAF AMD
KSME 271652Z 2717/2812 VRB03KT P6SM BKN025 BKN250
     FM271900 04005KT P6SM BKN035 BKN250
     FM272300 VRB03KT P6SM FEW035 SCT250=

USA.gov is the U.S. government's official web portal to all federal, state and local government web resources and services.